Time;durP1;ratioP1;P1;durP2;ratioP2;P2;SDS_P1;SDS_P2;PMS_P1;PMS_P2;Temp;Humidity;BMP_temperature;BMP_pressure;BME280_temperature;BME280_humidity;BME280_pressure;Samples;Min_cycle;Max_cycle;Signal;HPM_P1;HPM_P2
2021/08/20 00:00:29;;;;;;;0.20;0.20;;;21.50;59.10;;;;;;5060655;28;20048;-35
2021/08/20 00:02:56;;;;;;;0.30;0.20;;;21.50;58.80;;;;;;5064234;28;20096;-36
2021/08/20 00:05:22;;;;;;;0.20;0.20;;;21.50;59.20;;;;;;5055691;28;20025;-35
2021/08/20 00:07:48;;;;;;;0.95;0.28;;;21.50;59.00;;;;;;5064373;28;20040;-36
2021/08/20 00:10:15;;;;;;;0.20;0.20;;;21.40;58.90;;;;;;5064781;28;20020;-36
2021/08/20 00:12:41;;;;;;;;;;;21.40;59.20;;;;;;5066402;28;20060;-35
2021/08/20 00:15:08;;;;;;;0.28;0.28;;;21.40;59.80;;;;;;5064124;28;19909;-37
2021/08/20 00:17:34;;;;;;;0.28;0.20;;;21.40;59.10;;;;;;5070779;28;20037;-36
2021/08/20 00:20:00;;;;;;;1.48;0.20;;;21.30;58.90;;;;;;5064508;28;20029;-35
2021/08/20 00:22:27;;;;;;;0.30;0.20;;;21.30;59.30;;;;;;5053899;28;20017;-35
2021/08/20 00:24:53;;;;;;;0.50;0.30;;;21.30;59.20;;;;;;5058346;28;20775;-35
2021/08/20 00:27:19;;;;;;;0.20;0.20;;;21.30;59.70;;;;;;5065196;28;20524;-35
2021/08/20 00:29:46;;;;;;;0.35;0.28;;;21.30;60.30;;;;;;5047563;28;20064;-35
2021/08/20 00:32:12;;;;;;;0.20;0.20;;;21.30;60.30;;;;;;5064965;28;20393;-35
2021/08/20 00:34:38;;;;;;;0.40;0.20;;;21.30;60.30;;;;;;5064221;28;20017;-36
2021/08/20 00:37:04;;;;;;;0.40;0.30;;;21.30;60.40;;;;;;5053430;28;20021;-36
2021/08/20 00:39:30;;;;;;;0.75;0.20;;;21.30;60.30;;;;;;5066695;28;20025;-35
2021/08/20 00:41:56;;;;;;;1.10;0.30;;;21.40;61.30;;;;;;5073673;28;20021;-36
2021/08/20 00:44:23;;;;;;;0.32;0.20;;;21.40;60.90;;;;;;5074962;28;20025;-36
2021/08/20 00:46:49;;;;;;;0.30;0.22;;;21.40;61.40;;;;;;5070579;28;20441;-35
2021/08/20 00:49:15;;;;;;;0.50;0.30;;;21.50;61.60;;;;;;5064963;28;20108;-36
2021/08/20 00:51:41;;;;;;;0.30;0.30;;;21.50;62.10;;;;;;5066771;28;20927;-35
2021/08/20 00:54:10;;;;;;;0.43;0.40;;;21.50;61.90;;;;;;5068948;28;20114;-35
2021/08/20 00:56:43;;;;;;;0.20;0.20;;;21.60;62.30;;;;;;5072536;28;20037;-35
2021/08/20 00:59:13;;;;;;;0.52;0.35;;;21.60;62.30;;;;;;5059177;28;20464;-36
2021/08/20 01:01:39;;;;;;;0.30;0.25;;;21.60;62.60;;;;;;5045240;28;20120;-35
2021/08/20 01:04:06;;;;;;;0.38;0.30;;;21.60;63.00;;;;;;5059931;28;20057;-36
2021/08/20 01:06:32;;;;;;;0.47;0.30;;;21.60;63.40;;;;;;5062417;28;20482;-35
2021/08/20 01:08:58;;;;;;;0.55;0.30;;;21.60;63.50;;;;;;5053792;28;20033;-35
2021/08/20 01:11:25;;;;;;;0.47;0.30;;;21.70;63.20;;;;;;5059958;28;20040;-36
2021/08/20 01:13:52;;;;;;;0.30;0.30;;;21.70;63.40;;;;;;5062691;28;20031;-35
2021/08/20 01:16:18;;;;;;;0.40;0.30;;;21.70;63.60;;;;;;5056798;28;20061;-35
2021/08/20 01:18:44;;;;;;;0.60;0.40;;;21.70;63.80;;;;;;5036118;28;20017;-35
2021/08/20 01:21:14;;;;;;;0.50;0.30;;;21.70;63.60;;;;;;5063471;28;20025;-36
2021/08/20 01:23:59;;;;;;;0.20;0.20;;;21.70;63.60;;;;;;5063656;28;20036;-36
2021/08/20 01:26:27;;;;;;;0.30;0.30;;;21.80;63.90;;;;;;5063194;28;20028;-36
2021/08/20 01:28:53;;;;;;;0.20;0.20;;;21.80;64.10;;;;;;5063792;28;20025;-36
2021/08/20 01:31:19;;;;;;;0.30;0.30;;;21.80;63.80;;;;;;5057354;28;20036;-36
2021/08/20 01:33:46;;;;;;;0.80;0.30;;;21.80;63.90;;;;;;5063330;28;20037;-36
2021/08/20 01:36:12;;;;;;;0.60;0.40;;;21.80;63.80;;;;;;5063274;28;20032;-35
2021/08/20 01:38:55;;;;;;;0.30;0.22;;;21.90;64.00;;;;;;5071864;28;20032;-36
2021/08/20 01:41:23;;;;;;;0.40;0.40;;;21.90;64.00;;;;;;5068232;28;20135;-36
2021/08/20 01:43:50;;;;;;;0.20;0.20;;;21.90;64.00;;;;;;5063116;28;20029;-36
2021/08/20 01:46:19;;;;;;;0.30;0.30;;;21.90;64.00;;;;;;5063351;28;20032;-36
2021/08/20 01:48:56;;;;;;;0.22;0.22;;;22.00;64.20;;;;;;5052489;28;20044;-35
2021/08/20 01:51:30;;;;;;;2.80;0.30;;;22.00;64.20;;;;;;5063160;28;20041;-36
2021/08/20 01:54:00;;;;;;;0.40;0.30;;;22.00;64.20;;;;;;5046740;28;20095;-36
2021/08/20 01:56:27;;;;;;;2.33;0.30;;;22.00;63.90;;;;;;5054144;28;20056;-36
2021/08/20 01:58:56;;;;;;;;;;;22.00;64.00;;;;;;5052234;28;20025;-36
2021/08/20 02:01:22;;;;;;;0.57;0.30;;;22.00;63.90;;;;;;5058381;28;19905;-36
2021/08/20 02:03:49;;;;;;;0.40;0.30;;;22.00;64.00;;;;;;5046420;28;20032;-36
2021/08/20 02:06:15;;;;;;;0.40;0.20;;;22.10;64.10;;;;;;5062761;28;20017;-36
2021/08/20 02:08:41;;;;;;;0.30;0.30;;;22.10;64.10;;;;;;5062616;28;20037;-36
2021/08/20 02:11:07;;;;;;;0.50;0.40;;;22.10;64.20;;;;;;5062654;28;20047;-36
2021/08/20 02:13:34;;;;;;;0.50;0.28;;;22.10;64.20;;;;;;5062627;28;20029;-36
2021/08/20 02:16:00;;;;;;;0.52;0.30;;;22.10;64.10;;;;;;5063058;28;20052;-36
2021/08/20 02:18:26;;;;;;;0.35;0.30;;;22.10;64.00;;;;;;5064499;28;20067;-35
2021/08/20 02:20:52;;;;;;;0.50;0.40;;;22.10;64.00;;;;;;5077842;28;20032;-36
2021/08/20 02:23:18;;;;;;;0.28;0.28;;;22.10;63.90;;;;;;5062545;28;20075;-36
2021/08/20 02:25:44;;;;;;;0.52;0.20;;;22.20;63.90;;;;;;5046052;28;20056;-36
2021/08/20 02:28:10;;;;;;;1.45;0.30;;;22.20;63.90;;;;;;5062436;28;20033;-36
2021/08/20 02:30:37;;;;;;;0.20;0.20;;;22.20;63.90;;;;;;5044978;28;20028;-36
2021/08/20 02:33:03;;;;;;;0.25;0.25;;;22.20;63.80;;;;;;5044861;28;20033;-36
2021/08/20 02:35:29;;;;;;;0.50;0.40;;;22.20;63.90;;;;;;5062768;28;20043;-36
2021/08/20 02:37:55;;;;;;;0.20;0.20;;;22.20;63.90;;;;;;5062407;28;20029;-36
2021/08/20 02:40:22;;;;;;;0.40;0.32;;;22.20;63.90;;;;;;5062549;28;20056;-35
2021/08/20 02:42:49;;;;;;;0.50;0.37;;;22.20;63.90;;;;;;5062552;28;20036;-35
2021/08/20 02:45:15;;;;;;;0.85;0.30;;;22.20;63.90;;;;;;5073346;28;20039;-36
2021/08/20 02:47:41;;;;;;;1.30;0.30;;;22.30;64.00;;;;;;5073912;28;20021;-36
2021/08/20 02:50:08;;;;;;;0.30;0.28;;;22.30;64.10;;;;;;5062954;28;20049;-36
2021/08/20 02:52:34;;;;;;;0.30;0.30;;;22.30;64.10;;;;;;5062272;28;20037;-37
2021/08/20 02:55:00;;;;;;;0.30;0.30;;;22.30;64.20;;;;;;5062488;28;20119;-36
2021/08/20 02:57:29;;;;;;;0.30;0.30;;;22.30;64.20;;;;;;5059497;28;20752;-36
2021/08/20 02:59:56;;;;;;;0.93;0.38;;;22.30;64.20;;;;;;5062058;28;20028;-36
2021/08/20 03:02:22;;;;;;;0.20;0.20;;;22.30;64.30;;;;;;5062566;28;20029;-36
2021/08/20 03:04:48;;;;;;;0.28;0.28;;;22.30;64.20;;;;;;5062107;28;20085;-36
2021/08/20 03:07:14;;;;;;;0.40;0.40;;;22.30;64.10;;;;;;5062386;28;20029;-36
2021/08/20 03:09:40;;;;;;;0.25;0.25;;;22.40;64.20;;;;;;5062849;28;20044;-36
2021/08/20 03:12:07;;;;;;;0.25;0.20;;;22.40;64.10;;;;;;5066419;28;20037;-36
2021/08/20 03:14:34;;;;;;;0.30;0.30;;;22.40;63.90;;;;;;5063125;28;20026;-36
2021/08/20 03:17:00;;;;;;;0.80;0.50;;;22.40;63.80;;;;;;5066361;28;20045;-36
2021/08/20 03:19:26;;;;;;;0.40;0.40;;;22.40;63.80;;;;;;5065850;28;20723;-36
2021/08/20 03:21:52;;;;;;;0.40;0.40;;;22.40;63.80;;;;;;5066378;28;20041;-36
2021/08/20 03:24:19;;;;;;;0.57;0.30;;;22.40;63.80;;;;;;5065722;28;20021;-35
2021/08/20 03:26:45;;;;;;;0.85;0.38;;;22.40;63.70;;;;;;5065758;28;20037;-36
2021/08/20 03:29:11;;;;;;;0.30;0.30;;;22.40;63.70;;;;;;5065776;28;20029;-35
2021/08/20 03:31:37;;;;;;;0.30;0.30;;;22.40;63.70;;;;;;5066017;28;20060;-36
2021/08/20 03:34:03;;;;;;;0.30;0.30;;;22.40;63.80;;;;;;5065701;28;20104;-36
2021/08/20 03:36:29;;;;;;;0.30;0.22;;;22.40;63.90;;;;;;5065928;28;20029;-36
2021/08/20 03:38:55;;;;;;;0.35;0.30;;;22.40;63.90;;;;;;5065862;28;20029;-37
2021/08/20 03:41:22;;;;;;;0.55;0.30;;;22.50;63.90;;;;;;5065937;28;20097;-36
2021/08/20 03:43:48;;;;;;;0.30;0.30;;;22.50;63.80;;;;;;5065743;28;20021;-36
2021/08/20 03:46:15;;;;;;;0.30;0.20;;;22.50;63.80;;;;;;5065870;28;20305;-36
2021/08/20 03:48:44;;;;;;;0.40;0.35;;;22.50;63.80;;;;;;5065409;28;20060;-36
2021/08/20 03:51:14;;;;;;;0.40;0.30;;;22.50;63.80;;;;;;5065373;28;20052;-36
2021/08/20 03:53:40;;;;;;;0.40;0.35;;;22.50;63.80;;;;;;5065619;28;20025;-36
2021/08/20 03:56:06;;;;;;;0.40;0.40;;;22.50;63.80;;;;;;5065381;28;20036;-36
2021/08/20 03:58:33;;;;;;;0.25;0.25;;;22.50;63.80;;;;;;5064412;28;20029;-36
2021/08/20 04:00:59;;;;;;;0.30;0.30;;;22.50;63.70;;;;;;5062677;28;20032;-36
2021/08/20 04:03:25;;;;;;;0.52;0.32;;;22.50;63.80;;;;;;5054427;28;20027;-36
2021/08/20 04:05:51;;;;;;;0.45;0.40;;;22.50;63.80;;;;;;5058352;28;20029;-36
2021/08/20 04:08:17;;;;;;;0.30;0.30;;;22.60;63.90;;;;;;5064185;28;20048;-36
2021/08/20 04:10:44;;;;;;;0.30;0.30;;;22.50;63.70;;;;;;5053853;28;20056;-36
2021/08/20 04:13:10;;;;;;;0.47;0.38;;;22.50;63.70;;;;;;5058995;28;20029;-36
2021/08/20 04:15:37;;;;;;;0.30;0.30;;;22.50;63.70;;;;;;5046960;28;20033;-36
2021/08/20 04:18:03;;;;;;;1.80;0.30;;;22.60;64.20;;;;;;5027182;28;20029;-36
2021/08/20 04:20:30;;;;;;;0.40;0.30;;;22.60;64.00;;;;;;5049749;28;20065;-36
2021/08/20 04:22:57;;;;;;;0.83;0.47;;;22.60;64.00;;;;;;5021719;28;20021;-36
2021/08/20 04:25:23;;;;;;;0.73;0.40;;;22.60;63.90;;;;;;5061242;28;20029;-36
2021/08/20 04:27:50;;;;;;;0.37;0.30;;;22.60;63.90;;;;;;5077104;28;20045;-36
2021/08/20 04:30:18;;;;;;;0.32;0.32;;;22.60;63.90;;;;;;5064252;28;20285;-35
2021/08/20 04:32:45;;;;;;;0.30;0.30;;;22.60;63.90;;;;;;5063911;28;20041;-36
2021/08/20 04:35:11;;;;;;;0.30;0.30;;;22.60;64.00;;;;;;5044596;28;20032;-36
2021/08/20 04:37:38;;;;;;;0.30;0.30;;;22.60;64.00;;;;;;5058970;28;20050;-36
2021/08/20 04:40:05;;;;;;;0.20;0.20;;;22.60;63.90;;;;;;5064166;28;20031;-36
2021/08/20 04:42:31;;;;;;;0.40;0.32;;;22.60;63.90;;;;;;5069467;28;20045;-36
2021/08/20 04:44:57;;;;;;;0.30;0.30;;;22.60;63.80;;;;;;5063661;28;20025;-36
2021/08/20 04:47:23;;;;;;;1.08;0.47;;;22.60;63.80;;;;;;5073740;28;20068;-36
2021/08/20 04:49:50;;;;;;;1.17;0.35;;;22.60;63.70;;;;;;5063431;28;20113;-36
2021/08/20 04:52:16;;;;;;;0.50;0.30;;;22.60;63.60;;;;;;5068918;28;20051;-41
2021/08/20 04:54:42;;;;;;;0.20;0.20;;;22.60;63.70;;;;;;5064986;28;20029;-36
2021/08/20 04:57:08;;;;;;;0.40;0.40;;;22.60;63.70;;;;;;5070876;28;20032;-36
2021/08/20 04:59:35;;;;;;;0.30;0.30;;;22.60;63.80;;;;;;5077098;28;20031;-36
2021/08/20 05:02:02;;;;;;;0.43;0.30;;;22.60;63.80;;;;;;5063315;28;20097;-36
2021/08/20 05:04:31;;;;;;;0.70;0.35;;;22.60;63.70;;;;;;5063455;28;20041;-36
2021/08/20 05:06:57;;;;;;;0.30;0.30;;;22.60;63.80;;;;;;5073917;28;20477;-36
2021/08/20 05:09:23;;;;;;;0.55;0.40;;;22.60;63.70;;;;;;5049306;28;20033;-36
2021/08/20 05:11:50;;;;;;;0.43;0.40;;;22.60;63.70;;;;;;5067380;28;20045;-36
2021/08/20 05:14:16;;;;;;;0.50;0.45;;;22.60;63.70;;;;;;5067570;28;20053;-36
2021/08/20 05:16:42;;;;;;;0.30;0.30;;;22.60;63.60;;;;;;5063327;28;20056;-36
2021/08/20 05:19:08;;;;;;;0.40;0.40;;;22.70;63.70;;;;;;5079836;28;20025;-36
2021/08/20 05:21:34;;;;;;;0.40;0.40;;;22.60;63.60;;;;;;5069192;28;20029;-36
2021/08/20 05:24:00;;;;;;;0.32;0.32;;;22.70;63.70;;;;;;5073717;28;20048;-36
2021/08/20 05:26:27;;;;;;;1.58;0.40;;;22.70;63.80;;;;;;5082509;28;20051;-36
2021/08/20 05:28:53;;;;;;;0.40;0.40;;;22.70;63.80;;;;;;5064890;28;20025;-36
2021/08/20 05:31:19;;;;;;;0.30;0.30;;;22.70;63.80;;;;;;5062598;28;20025;-36
2021/08/20 05:33:45;;;;;;;0.45;0.45;;;22.70;63.80;;;;;;5078349;28;20032;-36
2021/08/20 05:36:11;;;;;;;0.43;0.40;;;22.70;63.80;;;;;;5082061;28;20052;-36
2021/08/20 05:38:37;;;;;;;0.40;0.30;;;22.70;63.70;;;;;;5063146;28;20025;-36
2021/08/20 05:41:03;;;;;;;0.50;0.30;;;22.70;63.70;;;;;;5063270;28;20033;-36
2021/08/20 05:43:33;;;;;;;0.40;0.40;;;22.70;63.70;;;;;;5064015;28;20029;-36
2021/08/20 05:45:59;;;;;;;0.70;0.40;;;22.70;63.60;;;;;;5063187;28;20036;-36
2021/08/20 05:48:25;;;;;;;0.65;0.40;;;22.70;63.70;;;;;;5060542;28;20076;-36
2021/08/20 05:50:51;;;;;;;0.30;0.30;;;22.70;63.70;;;;;;5042927;28;20048;-36
2021/08/20 05:53:17;;;;;;;0.40;0.35;;;22.70;63.70;;;;;;5042717;28;20100;-36
2021/08/20 05:55:43;;;;;;;0.82;0.38;;;22.70;63.80;;;;;;5041589;28;20029;-36
2021/08/20 05:58:10;;;;;;;0.30;0.30;;;22.70;63.80;;;;;;5042912;28;20027;-36
2021/08/20 06:00:36;;;;;;;0.40;0.20;;;22.70;63.70;;;;;;5041361;28;20588;-36
2021/08/20 06:03:02;;;;;;;0.43;0.30;;;22.70;63.70;;;;;;5042480;28;20128;-36
2021/08/20 06:05:28;;;;;;;0.32;0.32;;;22.70;63.70;;;;;;5042794;28;20041;-36
2021/08/20 06:07:54;;;;;;;0.38;0.38;;;22.70;63.80;;;;;;5042692;28;20022;-36
2021/08/20 06:10:21;;;;;;;0.30;0.20;;;22.70;63.80;;;;;;5042877;28;20079;-36
2021/08/20 06:12:47;;;;;;;0.47;0.38;;;22.70;63.80;;;;;;5042199;28;20033;-36
2021/08/20 06:15:13;;;;;;;0.50;0.40;;;22.70;63.80;;;;;;5042779;28;20412;-36
2021/08/20 06:17:41;;;;;;;0.30;0.30;;;22.70;63.80;;;;;;5042448;28;20061;-35
2021/08/20 06:20:07;;;;;;;0.30;0.30;;;22.70;63.70;;;;;;5022980;28;20038;-36
2021/08/20 06:22:33;;;;;;;0.38;0.35;;;22.70;63.70;;;;;;5042550;28;20017;-36
2021/08/20 06:25:00;;;;;;;0.35;0.32;;;22.70;63.60;;;;;;5042412;28;20041;-36
2021/08/20 06:27:26;;;;;;;0.32;0.30;;;22.70;63.60;;;;;;5042637;28;20037;-36
2021/08/20 06:29:52;;;;;;;0.43;0.40;;;22.70;63.70;;;;;;5042092;28;20029;-36
2021/08/20 06:32:18;;;;;;;0.38;0.38;;;22.70;63.70;;;;;;5040601;28;20060;-36
2021/08/20 06:34:44;;;;;;;0.57;0.40;;;22.70;63.70;;;;;;5042198;28;20053;-36
2021/08/20 06:37:10;;;;;;;0.70;0.30;;;22.70;63.70;;;;;;5042319;28;20104;-36
2021/08/20 06:39:36;;;;;;;0.30;0.30;;;22.70;63.70;;;;;;5022620;28;20045;-36
2021/08/20 06:42:03;;;;;;;0.52;0.40;;;22.70;63.80;;;;;;5022434;28;20080;-36
2021/08/20 06:44:29;;;;;;;0.57;0.40;;;22.70;63.80;;;;;;5016806;28;20044;-36
2021/08/20 06:46:55;;;;;;;0.30;0.30;;;22.70;63.80;;;;;;5041642;28;20032;-36
2021/08/20 06:49:21;;;;;;;0.40;0.35;;;22.70;63.80;;;;;;5052917;28;20076;-36
2021/08/20 06:51:47;;;;;;;0.80;0.40;;;22.70;63.80;;;;;;5061941;28;20048;-36
2021/08/20 06:54:14;;;;;;;0.40;0.40;;;22.70;63.80;;;;;;5061090;28;20027;-36
2021/08/20 06:56:40;;;;;;;0.50;0.40;;;22.70;63.80;;;;;;5051566;28;20040;-36
2021/08/20 06:59:06;;;;;;;0.60;0.30;;;22.70;63.80;;;;;;5055406;28;20029;-36
2021/08/20 07:01:32;;;;;;;0.98;0.40;;;22.70;63.80;;;;;;5064220;28;20032;-36
2021/08/20 07:03:59;;;;;;;0.40;0.40;;;22.70;63.70;;;;;;5062551;28;20092;-36
2021/08/20 07:06:26;;;;;;;0.30;0.30;;;22.70;63.70;;;;;;5068371;28;20424;-36
2021/08/20 07:08:52;;;;;;;0.40;0.30;;;22.80;63.80;;;;;;5074107;28;20028;-36
2021/08/20 07:11:19;;;;;;;0.70;0.40;;;22.80;63.80;;;;;;5074687;28;20044;-36
2021/08/20 07:13:45;;;;;;;0.50;0.32;;;22.80;63.80;;;;;;5064249;28;20068;-36
2021/08/20 07:16:11;;;;;;;0.30;0.30;;;22.70;63.80;;;;;;5064830;28;20714;-36
2021/08/20 07:18:37;;;;;;;0.40;0.40;;;22.80;63.90;;;;;;5066443;28;20039;-35
2021/08/20 07:21:04;;;;;;;0.50;0.40;;;22.80;63.90;;;;;;5081453;28;20024;-36
2021/08/20 07:23:31;;;;;;;0.30;0.30;;;22.80;63.90;;;;;;5081952;28;20085;-36
2021/08/20 07:25:59;;;;;;;0.25;0.20;;;22.80;64.00;;;;;;5075558;28;20052;-36
2021/08/20 07:28:26;;;;;;;0.40;0.40;;;22.80;64.00;;;;;;5043415;28;20029;-36
2021/08/20 07:30:53;;;;;;;0.38;0.38;;;22.80;64.00;;;;;;5061335;28;20021;-36
2021/08/20 07:33:19;;;;;;;0.28;0.28;;;22.80;64.00;;;;;;5049544;28;20040;-36
2021/08/20 07:35:45;;;;;;;0.40;0.40;;;22.80;63.90;;;;;;5042798;28;20022;-36
2021/08/20 07:38:11;;;;;;;0.20;0.20;;;22.80;64.00;;;;;;5061156;28;20826;-36
2021/08/20 07:40:37;;;;;;;0.40;0.40;;;22.80;63.90;;;;;;5060980;28;20029;-36
2021/08/20 07:43:04;;;;;;;0.30;0.30;;;22.80;64.00;;;;;;5061768;28;20029;-36
2021/08/20 07:45:30;;;;;;;0.38;0.28;;;22.80;64.00;;;;;;5046937;28;20461;-36
2021/08/20 07:47:56;;;;;;;0.40;0.35;;;22.80;63.90;;;;;;5045746;28;20033;-36
2021/08/20 07:50:22;;;;;;;0.30;0.30;;;22.80;64.00;;;;;;5069846;28;20751;-36
2021/08/20 07:52:48;;;;;;;0.50;0.40;;;22.80;63.90;;;;;;5073090;28;20024;-36
2021/08/20 07:55:16;;;;;;;2.08;0.50;;;22.80;63.80;;;;;;5066756;28;20025;-36
2021/08/20 07:57:52;;;;;;;0.32;0.32;;;22.80;63.80;;;;;;5079420;28;20064;-36
2021/08/20 08:00:23;;;;;;;1.33;0.30;;;22.80;63.80;;;;;;5074582;28;20028;-36
2021/08/20 08:02:49;;;;;;;0.45;0.40;;;22.80;64.00;;;;;;5074047;28;20025;-36
2021/08/20 08:05:15;;;;;;;0.32;0.30;;;22.80;64.10;;;;;;5079342;28;20032;-36
2021/08/20 08:07:41;;;;;;;0.40;0.30;;;22.80;64.80;;;;;;5082482;28;20815;-36
2021/08/20 08:10:08;;;;;;;2.53;0.50;;;22.80;64.20;;;;;;5079532;28;20115;-36
2021/08/20 08:12:34;;;;;;;1.23;0.30;;;22.80;64.20;;;;;;5083954;28;20412;-35
2021/08/20 08:15:00;;;;;;;0.35;0.30;;;22.80;64.10;;;;;;5084786;28;20042;-36
2021/08/20 08:17:26;;;;;;;1.42;0.50;;;22.80;64.10;;;;;;5084800;28;20059;-37
2021/08/20 08:19:53;;;;;;;0.85;0.30;;;22.80;64.10;;;;;;5085129;28;20031;-35
2021/08/20 08:22:19;;;;;;;0.30;0.30;;;22.80;64.00;;;;;;5084972;28;20029;-36
2021/08/20 08:24:45;;;;;;;0.30;0.30;;;22.80;64.00;;;;;;5084541;28;20039;-36
2021/08/20 08:27:11;;;;;;;0.68;0.30;;;22.80;64.00;;;;;;5070304;28;20028;-36
2021/08/20 08:29:37;;;;;;;0.40;0.30;;;22.80;64.00;;;;;;5066853;28;20021;-36
2021/08/20 08:32:04;;;;;;;0.40;0.25;;;22.80;64.00;;;;;;5064576;28;20033;-36
2021/08/20 08:34:30;;;;;;;0.60;0.40;;;22.80;63.90;;;;;;5064698;28;20032;-36
2021/08/20 08:36:56;;;;;;;0.50;0.50;;;22.80;63.90;;;;;;5067726;28;20327;-36
2021/08/20 08:39:22;;;;;;;0.60;0.50;;;22.80;63.90;;;;;;5064313;28;20031;-36
2021/08/20 08:41:48;;;;;;;0.38;0.38;;;22.80;63.90;;;;;;5081053;28;20484;-36
2021/08/20 08:44:14;;;;;;;0.60;0.40;;;22.80;63.90;;;;;;5053177;28;20043;-36
2021/08/20 08:46:40;;;;;;;0.28;0.28;;;22.80;64.00;;;;;;5083922;28;20063;-36
2021/08/20 08:49:07;;;;;;;1.00;0.43;;;22.80;64.00;;;;;;5052130;28;20053;-35
2021/08/20 08:51:33;;;;;;;0.40;0.30;;;22.80;64.10;;;;;;5047577;28;20033;-36
2021/08/20 08:53:59;;;;;;;0.40;0.40;;;22.80;64.10;;;;;;5079781;28;20265;-36
2021/08/20 08:56:26;;;;;;;0.47;0.40;;;22.80;64.20;;;;;;5079308;28;20028;-36
2021/08/20 08:58:52;;;;;;;0.68;0.50;;;22.80;64.20;;;;;;5072192;28;20119;-36
2021/08/20 09:01:31;;;;;;;0.52;0.40;;;22.80;64.20;;;;;;5079630;28;20032;-36
2021/08/20 09:04:13;;;;;;;0.40;0.40;;;22.80;64.20;;;;;;5068352;28;20035;-36
2021/08/20 09:06:50;;;;;;;1.05;0.50;;;22.80;64.20;;;;;;5074035;28;20031;-37
2021/08/20 09:09:20;;;;;;;0.40;0.40;;;22.80;64.20;;;;;;5063808;28;20049;-36
2021/08/20 09:12:09;;;;;;;0.95;0.60;;;22.80;64.10;;;;;;5063948;28;20044;-36
2021/08/20 09:14:36;;;;;;;0.60;0.40;;;22.80;64.10;;;;;;5077829;28;20092;-35
2021/08/20 09:17:03;;;;;;;0.50;0.50;;;22.80;64.00;;;;;;5066459;28;20028;-35
2021/08/20 09:19:29;;;;;;;;;;;22.80;64.00;;;;;;5084347;28;20028;-36
2021/08/20 09:21:57;;;;;;;0.60;0.43;;;22.80;63.90;;;;;;5084298;28;19912;-36
2021/08/20 09:24:31;;;;;;;0.63;0.40;;;22.80;64.00;;;;;;5066470;28;20078;-36
2021/08/20 09:27:24;;;;;;;0.43;0.43;;;22.80;64.10;;;;;;5069739;28;20056;-36
2021/08/20 09:30:11;;;;;;;0.60;0.40;;;22.80;64.10;;;;;;5056782;28;20033;-36
2021/08/20 09:32:44;;;;;;;0.40;0.40;;;22.90;64.20;;;;;;5083888;28;20044;-36
2021/08/20 09:35:11;;;;;;;0.60;0.50;;;22.80;64.20;;;;;;5083817;28;20032;-36
2021/08/20 09:37:37;;;;;;;0.50;0.40;;;22.80;64.20;;;;;;5065597;28;20025;-36
2021/08/20 09:40:12;;;;;;;0.40;0.40;;;22.80;64.30;;;;;;5063516;28;20024;-36
2021/08/20 09:42:39;;;;;;;0.40;0.40;;;22.80;64.30;;;;;;5063493;28;20021;-36
2021/08/20 09:45:20;;;;;;;0.50;0.33;;;22.80;64.30;;;;;;5063710;28;20033;-36
2021/08/20 09:47:51;;;;;;;0.73;0.40;;;22.80;64.30;;;;;;5063725;28;20107;-36
2021/08/20 09:50:22;;;;;;;0.68;0.40;;;22.80;64.30;;;;;;5063108;28;20053;-36
2021/08/20 09:52:48;;;;;;;0.80;0.52;;;22.80;64.30;;;;;;5063577;28;20052;-35
2021/08/20 09:55:40;;;;;;;2.05;0.50;;;22.80;64.30;;;;;;5063552;28;20024;-36
2021/08/20 09:58:08;;;;;;;0.40;0.40;;;22.80;64.30;;;;;;5082511;28;20032;-36
2021/08/20 10:00:35;;;;;;;0.60;0.30;;;22.80;64.30;;;;;;5049004;28;20028;-36
2021/08/20 10:03:06;;;;;;;0.63;0.57;;;22.80;64.30;;;;;;5082882;28;20123;-36
2021/08/20 10:05:33;;;;;;;0.50;0.50;;;22.80;64.30;;;;;;5064429;28;20028;-36
2021/08/20 10:08:00;;;;;;;0.50;0.50;;;22.80;64.40;;;;;;5064179;28;20017;-36
2021/08/20 10:10:26;;;;;;;1.23;0.50;;;22.80;64.30;;;;;;5082884;28;20028;-36
2021/08/20 10:12:52;;;;;;;0.50;0.50;;;22.80;64.40;;;;;;5080845;28;20032;-36
2021/08/20 10:15:18;;;;;;;0.52;0.50;;;22.80;64.40;;;;;;5047486;28;20040;-36
2021/08/20 10:17:44;;;;;;;0.60;0.47;;;22.80;64.40;;;;;;5065071;28;20563;-36
2021/08/20 10:20:11;;;;;;;0.75;0.47;;;22.80;64.40;;;;;;5047395;28;20100;-36
2021/08/20 10:22:37;;;;;;;0.65;0.50;;;22.80;64.50;;;;;;5064900;28;20050;-36
2021/08/20 10:25:04;;;;;;;0.63;0.40;;;22.80;64.50;;;;;;5064772;28;20029;-36
2021/08/20 10:27:32;;;;;;;0.98;0.70;;;22.80;64.50;;;;;;5044811;28;20025;-37
2021/08/20 10:29:59;;;;;;;0.50;0.50;;;22.80;64.60;;;;;;5030953;28;20025;-36
2021/08/20 10:32:25;;;;;;;0.63;0.50;;;22.80;64.50;;;;;;5063758;28;20096;-36
2021/08/20 10:34:51;;;;;;;0.60;0.60;;;22.80;64.50;;;;;;5082983;28;20016;-36
2021/08/20 10:37:38;;;;;;;0.40;0.40;;;22.80;64.50;;;;;;5082966;28;20051;-36
2021/08/20 10:40:37;;;;;;;0.75;0.50;;;22.80;64.50;;;;;;5067232;28;20040;-36
2021/08/20 10:43:03;;;;;;;1.25;0.50;;;22.80;64.40;;;;;;5000458;28;20034;-36
2021/08/20 10:45:37;;;;;;;0.65;0.60;;;22.80;64.40;;;;;;4984172;28;20038;-36
2021/08/20 10:48:29;;;;;;;1.08;0.50;;;22.80;64.40;;;;;;5000618;28;20494;-36
2021/08/20 10:50:55;;;;;;;1.40;0.63;;;22.80;64.50;;;;;;4977314;28;20039;-35
2021/08/20 10:53:22;;;;;;;0.60;0.47;;;22.80;64.60;;;;;;4988310;28;20034;-37
2021/08/20 10:55:48;;;;;;;0.60;0.55;;;22.80;64.60;;;;;;5000713;28;20030;-35
2021/08/20 10:58:14;;;;;;;0.50;0.40;;;22.80;64.60;;;;;;5000536;28;20035;-36
2021/08/20 11:00:41;;;;;;;0.60;0.60;;;22.80;64.60;;;;;;5000250;28;20057;-36
2021/08/20 11:03:09;;;;;;;0.80;0.55;;;22.80;64.60;;;;;;5000572;28;20054;-36
2021/08/20 11:05:38;;;;;;;0.88;0.50;;;22.80;64.60;;;;;;5000468;28;20042;-36
2021/08/20 11:08:23;;;;;;;1.05;0.70;;;22.80;65.30;;;;;;5000326;28;20041;-36
2021/08/20 11:10:49;;;;;;;0.55;0.55;;;22.80;64.60;;;;;;5000177;28;20045;-36
2021/08/20 11:13:15;;;;;;;0.57;0.50;;;22.80;64.60;;;;;;5000360;28;20035;-36
2021/08/20 11:15:43;;;;;;;0.50;0.50;;;22.80;64.60;;;;;;5000207;28;20042;-35
2021/08/20 11:18:09;;;;;;;0.65;0.57;;;22.80;64.60;;;;;;5013996;28;20103;-36
2021/08/20 11:20:39;;;;;;;0.50;0.50;;;22.80;64.60;;;;;;5047328;28;20028;-36
2021/08/20 11:23:15;;;;;;;0.73;0.60;;;22.80;64.60;;;;;;5081926;28;20025;-36
2021/08/20 11:25:41;;;;;;;0.60;0.60;;;22.80;64.60;;;;;;5078907;28;20140;-36
2021/08/20 11:28:17;;;;;;;0.50;0.50;;;22.80;64.60;;;;;;5062267;28;20025;-39
2021/08/20 11:30:44;;;;;;;0.60;0.60;;;22.80;64.60;;;;;;5062881;28;20048;-36
2021/08/20 11:33:18;;;;;;;1.10;0.60;;;22.80;64.60;;;;;;5066431;28;20033;-36
2021/08/20 11:35:47;;;;;;;0.43;0.43;;;22.80;64.70;;;;;;5051560;28;20051;-36
2021/08/20 11:38:27;;;;;;;0.50;0.50;;;22.80;64.80;;;;;;5085959;28;20084;-36
2021/08/20 11:40:54;;;;;;;0.65;0.60;;;22.80;64.80;;;;;;5085887;28;20055;-36
2021/08/20 11:43:22;;;;;;;;;;;22.80;64.80;;;;;;5086034;28;20042;-36
2021/08/20 11:46:08;;;;;;;0.60;0.60;;;22.80;64.90;;;;;;5086185;28;19940;-36
2021/08/20 11:48:59;;;;;;;0.40;0.40;;;22.80;64.80;;;;;;5083426;28;20045;-36
2021/08/20 11:51:28;;;;;;;1.05;0.70;;;22.80;64.90;;;;;;5066207;28;20041;-36
2021/08/20 11:53:55;;;;;;;0.55;0.50;;;22.80;64.80;;;;;;5065303;28;20045;-36
2021/08/20 11:56:21;;;;;;;0.60;0.60;;;22.80;64.80;;;;;;5067906;28;20028;-36
2021/08/20 11:58:47;;;;;;;0.77;0.60;;;22.80;64.80;;;;;;5085581;28;20090;-36
2021/08/20 12:01:34;;;;;;;0.70;0.70;;;22.80;64.80;;;;;;5067793;28;20119;-36
2021/08/20 12:04:01;;;;;;;0.70;0.70;;;22.80;64.70;;;;;;5085518;28;20032;-36
2021/08/20 12:06:28;;;;;;;0.67;0.67;;;22.80;64.70;;;;;;5067232;28;20784;-36
2021/08/20 12:08:57;;;;;;;0.47;0.47;;;22.80;64.70;;;;;;5067628;28;20029;-36
2021/08/20 12:11:27;;;;;;;0.50;0.50;;;22.80;64.70;;;;;;5085029;28;20055;-36
2021/08/20 12:13:54;;;;;;;0.50;0.50;;;22.80;64.70;;;;;;5085517;28;20052;-36
2021/08/20 12:16:47;;;;;;;0.50;0.50;;;22.80;64.80;;;;;;5067074;28;20029;-36
2021/08/20 12:19:39;;;;;;;0.50;0.50;;;22.80;64.80;;;;;;5082826;28;20051;-36
2021/08/20 12:22:06;;;;;;;0.93;0.60;;;22.80;64.90;;;;;;5083750;28;20051;-36
2021/08/20 12:24:41;;;;;;;0.60;0.57;;;22.80;64.90;;;;;;5065370;28;20029;-36
2021/08/20 12:27:27;;;;;;;0.50;0.50;;;22.80;65.00;;;;;;5080193;28;20036;-36
2021/08/20 12:29:59;;;;;;;0.60;0.60;;;22.80;65.00;;;;;;5085226;28;20032;-36
2021/08/20 12:32:26;;;;;;;0.68;0.68;;;22.80;65.00;;;;;;5083393;28;20104;-36
2021/08/20 12:35:15;;;;;;;0.90;0.60;;;22.80;65.10;;;;;;5085091;28;20047;-36
2021/08/20 12:38:05;;;;;;;0.70;0.70;;;22.80;65.20;;;;;;5079464;28;20123;-36
2021/08/20 12:40:38;;;;;;;0.93;0.73;;;22.80;65.10;;;;;;5068072;28;20082;-36
2021/08/20 12:43:05;;;;;;;0.95;0.70;;;22.80;65.00;;;;;;5064495;28;20024;-36
2021/08/20 12:45:31;;;;;;;0.70;0.70;;;22.80;65.00;;;;;;5066376;28;20032;-36
2021/08/20 12:48:02;;;;;;;0.75;0.75;;;22.80;64.90;;;;;;5066995;28;20032;-36
2021/08/20 12:50:29;;;;;;;0.60;0.60;;;22.80;65.00;;;;;;5066883;28;20075;-36
2021/08/20 12:53:01;;;;;;;0.88;0.77;;;22.80;65.00;;;;;;5084703;28;20055;-36